Time;durP1;ratioP1;P1;durP2;ratioP2;P2;SDS_P1;SDS_P2;PMS_P1;PMS_P2;Temp;Humidity;BMP_temperature;BMP_pressure;BME280_temperature;BME280_humidity;BME280_pressure;Samples;Min_cycle;Max_cycle;Signal;HPM_P1;HPM_P2
2022/10/06 00:01:14;;;;;;;10.27;8.50;;;14.70;99.90;;;;;;5016107;28;20622;-68
2022/10/06 00:03:40;;;;;;;25.93;9.97;;;14.60;99.90;;;;;;5016079;28;20176;-68
2022/10/06 00:06:07;;;;;;;16.13;10.03;;;14.60;99.90;;;;;;5017117;28;20662;-68
2022/10/06 00:08:36;;;;;;;14.90;8.83;;;14.60;99.90;;;;;;5015729;28;20430;-68
2022/10/06 00:11:02;;;;;;;12.67;9.00;;;14.60;99.90;;;;;;5014697;28;20403;-68
2022/10/06 00:13:29;;;;;;;9.63;8.80;;;14.60;99.90;;;;;;5016013;28;20978;-68
2022/10/06 00:15:55;;;;;;;17.97;8.80;;;14.60;99.90;;;;;;5015491;28;20203;-68
2022/10/06 00:18:21;;;;;;;14.20;9.53;;;14.60;99.90;;;;;;5015345;28;20769;-68
2022/10/06 00:20:57;;;;;;;8.80;7.90;;;14.60;99.90;;;;;;5015071;28;20190;-68
2022/10/06 00:23:23;;;;;;;9.73;8.83;;;14.50;99.90;;;;;;5013113;28;20179;-67
2022/10/06 00:25:49;;;;;;;9.67;8.77;;;14.50;99.90;;;;;;5011476;28;20799;-67
2022/10/06 00:28:15;;;;;;;11.70;8.70;;;14.50;99.90;;;;;;5011652;28;20544;-68
2022/10/06 00:30:41;;;;;;;16.90;8.63;;;14.50;99.90;;;;;;5010347;28;20188;-67
2022/10/06 00:33:12;;;;;;;8.27;7.47;;;14.40;99.90;;;;;;5011623;28;20458;-67
2022/10/06 00:35:37;;;;;;;11.50;8.30;;;14.40;99.90;;;;;;5011557;28;20794;-67
2022/10/06 00:38:03;;;;;;;11.73;8.97;;;14.30;99.90;;;;;;5011728;28;20407;-68
2022/10/06 00:40:30;;;;;;;8.97;8.07;;;14.30;99.90;;;;;;5010945;28;20198;-67
2022/10/06 00:42:57;;;;;;;8.33;7.43;;;14.40;99.90;;;;;;5010881;28;20172;-67
2022/10/06 00:45:42;;;;;;;9.03;8.20;;;14.30;99.90;;;;;;5010703;28;20964;-67
2022/10/06 00:48:17;;;;;;;8.93;8.03;;;14.30;99.90;;;;;;5011311;28;20396;-68
2022/10/06 00:50:44;;;;;;;12.77;8.03;;;14.30;99.90;;;;;;5010226;28;20421;-67
2022/10/06 00:53:10;;;;;;;10.00;7.40;;;14.30;99.90;;;;;;5011168;28;20467;-68
2022/10/06 00:55:36;;;;;;;17.33;8.20;;;14.40;99.90;;;;;;5010649;28;20431;-67
2022/10/06 00:58:03;;;;;;;11.77;8.00;;;14.40;99.90;;;;;;5011270;28;20956;-68
2022/10/06 01:00:30;;;;;;;8.33;7.60;;;14.30;99.90;;;;;;5009738;28;20553;-66
2022/10/06 01:03:08;;;;;;;8.07;7.27;;;14.30;99.90;;;;;;5011116;28;20419;-68
2022/10/06 01:05:40;;;;;;;11.17;7.43;;;14.30;99.90;;;;;;5010736;28;20438;-67
2022/10/06 01:08:06;;;;;;;26.43;11.33;;;14.20;99.90;;;;;;5010940;28;20403;-68
2022/10/06 01:10:32;;;;;;;11.07;8.03;;;14.20;99.90;;;;;;5010035;28;20409;-68
2022/10/06 01:12:58;;;;;;;9.60;7.07;;;14.20;99.90;;;;;;5010924;28;20208;-68
2022/10/06 01:15:26;;;;;;;11.30;7.53;;;14.20;99.90;;;;;;5010453;28;20192;-67
2022/10/06 01:17:57;;;;;;;9.20;6.47;;;14.20;99.90;;;;;;5010695;28;20469;-67
2022/10/06 01:20:24;;;;;;;7.70;7.00;;;14.20;99.90;;;;;;5010321;28;20784;-68
2022/10/06 01:23:00;;;;;;;8.47;7.67;;;14.20;99.90;;;;;;5010675;28;20419;-67
2022/10/06 01:25:27;;;;;;;7.60;6.80;;;14.20;99.90;;;;;;5010797;28;20427;-67
2022/10/06 01:27:55;;;;;;;9.57;7.50;;;14.20;99.90;;;;;;5010957;28;20594;-68
2022/10/06 01:30:31;;;;;;;8.17;7.33;;;14.20;99.90;;;;;;5009478;28;20430;-67
2022/10/06 01:32:56;;;;;;;8.40;7.47;;;14.20;99.90;;;;;;5010778;28;20602;-67
2022/10/06 01:35:22;;;;;;;20.90;8.10;;;14.20;99.90;;;;;;5010179;28;20568;-68
2022/10/06 01:37:48;;;;;;;20.20;7.87;;;14.20;99.90;;;;;;5010496;28;20689;-67
2022/10/06 01:40:13;;;;;;;11.67;7.53;;;14.10;99.90;;;;;;5009785;28;20160;-67
2022/10/06 01:42:39;;;;;;;20.07;8.20;;;14.10;99.90;;;;;;5009207;28;20180;-67
2022/10/06 01:45:05;;;;;;;11.47;7.93;;;14.00;99.90;;;;;;5009898;28;20212;-69
2022/10/06 01:47:32;;;;;;;10.03;7.87;;;14.00;99.90;;;;;;5010618;28;20176;-67
2022/10/06 01:49:58;;;;;;;10.00;7.30;;;14.00;99.90;;;;;;5010182;28;20423;-67
2022/10/06 01:52:25;;;;;;;11.00;7.93;;;13.90;99.90;;;;;;5009375;28;20459;-67
2022/10/06 01:54:51;;;;;;;12.43;7.87;;;13.90;99.90;;;;;;5010051;28;20431;-67
2022/10/06 01:57:17;;;;;;;18.23;8.50;;;13.90;99.90;;;;;;5010334;28;20416;-68
2022/10/06 01:59:43;;;;;;;18.80;9.23;;;13.90;99.90;;;;;;5009430;28;20418;-67
2022/10/06 02:02:09;;;;;;;12.30;8.20;;;13.90;99.90;;;;;;5008487;28;20267;-67
2022/10/06 02:04:35;;;;;;;17.30;9.10;;;13.90;99.90;;;;;;5010026;28;20196;-68
2022/10/06 02:07:01;;;;;;;16.87;8.60;;;13.90;99.90;;;;;;5009875;28;20466;-67
2022/10/06 02:09:26;;;;;;;11.90;7.57;;;13.80;99.90;;;;;;5010129;28;20180;-67
2022/10/06 02:11:52;;;;;;;15.53;8.57;;;13.80;99.90;;;;;;5008960;28;20477;-67
2022/10/06 02:14:17;;;;;;;11.13;8.40;;;13.80;99.90;;;;;;5009370;28;20292;-67
2022/10/06 02:16:44;;;;;;;15.40;8.43;;;13.80;99.90;;;;;;5009837;28;20716;-67
2022/10/06 02:19:09;;;;;;;10.43;8.33;;;13.70;99.90;;;;;;5009733;28;20203;-68
2022/10/06 02:21:35;;;;;;;13.10;8.73;;;13.70;99.90;;;;;;5009321;28;20447;-67
2022/10/06 02:24:01;;;;;;;12.03;8.93;;;13.70;99.90;;;;;;5009710;28;20176;-67
2022/10/06 02:26:27;;;;;;;8.97;8.00;;;13.70;99.90;;;;;;5009753;28;20194;-66
2022/10/06 02:28:53;;;;;;;13.80;9.20;;;13.60;99.90;;;;;;5009121;28;20625;-68
2022/10/06 02:31:19;;;;;;;13.50;9.73;;;13.50;99.90;;;;;;5009118;28;20408;-68
2022/10/06 02:33:45;;;;;;;17.43;9.93;;;13.50;99.90;;;;;;5009588;28;20607;-66
2022/10/06 02:36:15;;;;;;;12.77;9.00;;;13.50;99.90;;;;;;5009581;28;20518;-68
2022/10/06 02:38:42;;;;;;;18.10;9.47;;;13.50;99.90;;;;;;5009509;28;20204;-67
2022/10/06 02:41:09;;;;;;;27.17;9.97;;;13.50;99.90;;;;;;5017313;28;20431;-67
2022/10/06 02:43:36;;;;;;;20.93;9.27;;;13.60;99.90;;;;;;5027550;28;20501;-67
2022/10/06 02:46:08;;;;;;;9.33;7.53;;;13.60;99.90;;;;;;5029281;28;20430;-67
2022/10/06 02:48:34;;;;;;;14.23;7.60;;;13.50;99.90;;;;;;5029350;28;20776;-67
2022/10/06 02:51:03;;;;;;;10.27;7.60;;;13.50;99.90;;;;;;5028747;28;20402;-67
2022/10/06 02:53:29;;;;;;;8.40;6.20;;;13.40;99.90;;;;;;5029318;28;20454;-67
2022/10/06 02:56:04;;;;;;;9.27;7.40;;;13.40;99.90;;;;;;5029152;28;20446;-67
2022/10/06 02:58:30;;;;;;;13.73;6.70;;;13.40;99.90;;;;;;5029167;28;20249;-67
2022/10/06 03:01:06;;;;;;;8.60;6.50;;;13.40;2.40;;;;;;5028348;28;20945;-67
2022/10/06 03:03:33;;;;;;;7.23;6.07;;;13.50;1.00;;;;;;5029244;28;21207;-66
2022/10/06 03:06:21;;;;;;;7.17;6.40;;;13.50;1.00;;;;;;5029734;28;20568;-66
2022/10/06 03:08:50;;;;;;;7.47;6.83;;;13.50;1.00;;;;;;5028929;28;20425;-66
2022/10/06 03:11:18;;;;;;;8.33;5.87;;;13.50;1.00;;;;;;5028512;28;20395;-66
2022/10/06 03:13:48;;;;;;;7.83;5.93;;;13.40;1.00;;;;;;5029633;28;20414;-66
2022/10/06 03:16:18;;;;;;;8.80;6.20;;;13.40;1.00;;;;;;5032801;28;20770;-66
2022/10/06 03:18:46;;;;;;;9.00;6.80;;;13.40;74.80;;;;;;5032686;28;20409;-66
2022/10/06 03:21:20;;;;;;;7.30;5.47;;;13.40;99.90;;;;;;5031831;28;20437;-66
2022/10/06 03:23:47;;;;;;;9.53;6.20;;;13.40;99.90;;;;;;5032263;28;20405;-66
2022/10/06 03:26:16;;;;;;;6.87;6.27;;;13.40;99.90;;;;;;5032519;28;20773;-66
2022/10/06 03:28:42;;;;;;;8.43;6.00;;;13.40;99.90;;;;;;5031797;28;20903;-66
2022/10/06 03:31:08;;;;;;;9.40;6.20;;;13.40;99.90;;;;;;5031622;28;20494;-66
2022/10/06 03:33:33;;;;;;;9.80;6.80;;;13.40;99.90;;;;;;5032216;28;20497;-66
2022/10/06 03:36:20;;;;;;;10.00;6.50;;;13.40;99.90;;;;;;5032517;28;20273;-66
2022/10/06 03:38:46;;;;;;;8.10;6.40;;;13.40;99.90;;;;;;5032309;28;20197;-66
2022/10/06 03:41:17;;;;;;;8.33;6.37;;;13.40;99.90;;;;;;5031719;28;20456;-66
2022/10/06 03:43:44;;;;;;;8.33;6.87;;;13.40;99.90;;;;;;5030187;28;20414;-66
2022/10/06 03:46:12;;;;;;;12.40;6.67;;;13.40;99.90;;;;;;5032265;28;20924;-66
2022/10/06 03:48:38;;;;;;;11.63;9.23;;;13.40;99.90;;;;;;5032297;28;20413;-66
2022/10/06 03:51:16;;;;;;;9.00;6.70;;;13.40;99.90;;;;;;5031410;28;20883;-65
2022/10/06 03:53:47;;;;;;;10.40;8.83;;;13.30;99.90;;;;;;5031982;28;20279;-66
2022/10/06 03:56:18;;;;;;;11.00;6.50;;;13.30;99.90;;;;;;5032106;28;20418;-66
2022/10/06 03:58:47;;;;;;;8.93;7.73;;;13.30;99.90;;;;;;5031422;28;20407;-65
2022/10/06 04:01:21;;;;;;;80.60;12.17;;;13.30;99.90;;;;;;5031245;28;20398;-65
2022/10/06 04:03:48;;;;;;;10.37;7.30;;;13.30;99.90;;;;;;5031658;28;20394;-65
2022/10/06 04:06:17;;;;;;;12.17;7.23;;;13.30;99.90;;;;;;5031621;28;20970;-66
2022/10/06 04:08:44;;;;;;;8.00;7.00;;;13.30;99.90;;;;;;5030307;28;20425;-68
2022/10/06 04:11:11;;;;;;;10.50;6.60;;;13.20;99.90;;;;;;5031292;28;20469;-67
2022/10/06 04:13:38;;;;;;;14.40;7.40;;;13.20;99.90;;;;;;5031134;28;20740;-67
2022/10/06 04:16:24;;;;;;;24.73;8.70;;;13.20;99.90;;;;;;5031955;28;20490;-67
2022/10/06 04:18:59;;;;;;;11.07;7.07;;;13.20;99.90;;;;;;5031684;28;20412;-67
2022/10/06 04:21:26;;;;;;;13.93;7.00;;;13.20;99.90;;;;;;5030838;28;20808;-66
2022/10/06 04:23:53;;;;;;;9.30;6.97;;;13.20;99.90;;;;;;5031136;28;20410;-67
2022/10/06 04:26:21;;;;;;;7.50;6.70;;;13.20;99.90;;;;;;5018528;28;20558;-66
2022/10/06 04:28:46;;;;;;;8.20;7.40;;;13.10;99.90;;;;;;5021900;28;20417;-67
2022/10/06 04:31:15;;;;;;;12.53;7.43;;;13.10;99.90;;;;;;5030047;28;20402;-66
2022/10/06 04:33:45;;;;;;;7.43;6.80;;;13.20;99.90;;;;;;5018493;28;20163;-66
2022/10/06 04:36:21;;;;;;;19.23;7.57;;;13.20;99.90;;;;;;5028105;28;20441;-67
2022/10/06 04:38:47;;;;;;;10.70;6.53;;;13.20;99.90;;;;;;5020409;28;20442;-66
2022/10/06 04:41:16;;;;;;;13.70;8.33;;;13.20;99.90;;;;;;5026371;28;20453;-67
2022/10/06 04:43:43;;;;;;;13.73;8.20;;;13.20;99.90;;;;;;5028890;28;20399;-66
2022/10/06 04:46:09;;;;;;;9.53;6.37;;;13.20;99.90;;;;;;5031305;28;20892;-67
2022/10/06 04:48:34;;;;;;;24.77;9.27;;;13.20;99.90;;;;;;5041927;23;20475;-66
2022/10/06 04:51:03;;;;;;;10.60;7.63;;;13.20;99.90;;;;;;5015776;28;20733;-66
2022/10/06 04:53:29;;;;;;;24.93;8.27;;;13.30;99.90;;;;;;5015475;28;20208;-65
2022/10/06 04:56:04;;;;;;;25.17;7.00;;;13.20;99.90;;;;;;5016910;28;20498;-64
2022/10/06 04:58:32;;;;;;;7.07;5.90;;;13.10;99.90;;;;;;5002610;28;20428;-63
2022/10/06 05:00:59;;;;;;;23.43;7.70;;;13.10;99.90;;;;;;4994002;28;20474;-66
2022/10/06 05:03:25;;;;;;;21.87;7.57;;;13.10;1.00;;;;;;4994456;28;20451;-65
2022/10/06 05:05:51;;;;;;;17.57;6.80;;;13.10;1.00;;;;;;4994152;28;20438;-66
2022/10/06 05:08:16;;;;;;;15.13;6.73;;;13.10;1.00;;;;;;4996178;28;20530;-65
2022/10/06 05:10:42;;;;;;;31.27;8.10;;;13.20;99.90;;;;;;4993847;28;20181;-66
2022/10/06 05:13:11;;;;;;;20.83;7.90;;;13.20;99.90;;;;;;4990520;28;20212;-67
2022/10/06 05:15:37;;;;;;;10.83;6.90;;;13.20;99.90;;;;;;4991615;28;20196;-67
2022/10/06 05:18:03;;;;;;;9.00;6.17;;;13.20;99.90;;;;;;4993742;28;20897;-66
2022/10/06 05:20:29;;;;;;;12.00;7.60;;;13.30;99.90;;;;;;4987677;28;20431;-67
2022/10/06 05:22:54;;;;;;;27.60;7.80;;;13.20;99.90;;;;;;4991802;28;20177;-66
2022/10/06 05:25:20;;;;;;;19.07;8.47;;;13.20;99.90;;;;;;4990742;28;20645;-64
2022/10/06 05:27:45;;;;;;;29.43;8.70;;;13.20;99.90;;;;;;4992776;28;20200;-65
2022/10/06 05:30:11;;;;;;;26.17;7.67;;;13.20;99.90;;;;;;4991906;28;20256;-65
2022/10/06 05:32:37;;;;;;;17.70;7.80;;;13.20;99.90;;;;;;4986926;28;20204;-69
2022/10/06 05:35:03;;;;;;;79.33;11.80;;;13.20;99.90;;;;;;4987238;28;20691;-70
2022/10/06 05:37:28;;;;;;;59.13;11.57;;;13.40;99.90;;;;;;4988344;28;20193;-71
2022/10/06 05:39:54;;;;;;;25.57;8.30;;;13.50;99.90;;;;;;4988536;28;20392;-71
2022/10/06 05:42:20;;;;;;;50.60;11.03;;;13.60;99.90;;;;;;4987987;28;20486;-69
2022/10/06 05:44:45;;;;;;;47.97;12.93;;;13.80;1.00;;;;;;4985991;28;20243;-69
2022/10/06 05:47:11;;;;;;;33.83;9.57;;;13.90;1.00;;;;;;4987226;28;20583;-70
2022/10/06 05:49:36;;;;;;;16.00;7.40;;;14.10;1.00;;;;;;4988504;28;20204;-68
2022/10/06 05:52:02;;;;;;;15.83;8.00;;;14.30;99.90;;;;;;4986447;28;20211;-70
2022/10/06 05:54:28;;;;;;;19.63;9.57;;;14.50;99.90;;;;;;4988719;28;20173;-67
2022/10/06 05:56:53;;;;;;;9.90;7.13;;;14.70;99.90;;;;;;4986654;28;20188;-66
2022/10/06 05:59:19;;;;;;;12.93;7.37;;;15.10;1.00;;;;;;4971156;28;20597;-64
2022/10/06 06:01:45;;;;;;;15.87;7.70;;;15.50;1.00;;;;;;4968378;28;20635;-64
2022/10/06 06:06:47;;;;;;;35.73;8.43;;;15.90;1.00;;;;;;5022932;28;20461;-64
2022/10/06 06:09:16;;;;;;;57.00;11.63;;;16.30;1.00;;;;;;5027036;28;20490;-65
2022/10/06 06:11:44;;;;;;;72.70;12.70;;;16.70;99.90;;;;;;5014161;28;20454;-64
2022/10/06 06:15:59;;;;;;;40.33;10.73;;;16.70;99.90;;;;;;5007416;28;20415;-64
2022/10/06 06:17:04;;;;;;;46.40;9.20;;;16.10;99.90;;;;;;4998627;28;20836;-68
2022/10/06 06:19:30;;;;;;;35.97;10.20;;;15.70;99.90;;;;;;4999881;28;20423;-68
2022/10/06 06:21:55;;;;;;;20.13;7.20;;;15.80;99.90;;;;;;4995703;28;20552;-68
2022/10/06 06:24:21;;;;;;;10.50;7.40;;;16.20;71.80;;;;;;5007329;28;20176;-68
2022/10/06 06:26:47;;;;;;;53.90;11.33;;;15.90;48.40;;;;;;5008013;28;20164;-69
2022/10/06 06:29:12;;;;;;;64.70;11.57;;;15.80;99.90;;;;;;5007451;28;20195;-68
2022/10/06 06:31:42;;;;;;;43.97;8.90;;;15.70;99.90;;;;;;4999544;28;20196;-67
2022/10/06 06:34:08;;;;;;;71.87;13.67;;;15.50;99.90;;;;;;5009581;28;20764;-68
2022/10/06 06:36:39;;;;;;;23.40;7.57;;;15.40;99.90;;;;;;5010672;28;20494;-68
2022/10/06 06:39:07;;;;;;;62.50;10.50;;;15.40;99.90;;;;;;5010157;28;20187;-66
2022/10/06 06:41:36;;;;;;;11.20;6.13;;;15.80;99.90;;;;;;5000238;28;20520;-68
2022/10/06 06:44:02;;;;;;;8.30;5.70;;;15.70;99.90;;;;;;5000495;28;20906;-67
2022/10/06 06:46:30;;;;;;;32.63;8.00;;;15.70;99.90;;;;;;5009790;28;20461;-69
2022/10/06 06:48:58;;;;;;;9.83;5.50;;;15.50;99.90;;;;;;5010999;28;20492;-68
2022/10/06 06:51:24;;;;;;;37.80;7.93;;;15.50;99.90;;;;;;5003806;28;20462;-69
2022/10/06 06:53:51;;;;;;;49.83;10.50;;;16.10;99.90;;;;;;5013490;28;20462;-69
2022/10/06 06:56:17;;;;;;;78.03;14.03;;;17.30;1.00;;;;;;5013695;28;20621;-68
2022/10/06 06:58:46;;;;;;;34.70;8.10;;;18.60;1.00;;;;;;5011124;28;20419;-69
2022/10/06 07:01:14;;;;;;;15.00;6.10;;;20.30;1.00;;;;;;5003670;28;20428;-69
2022/10/06 07:03:47;;;;;;;19.97;6.43;;;21.50;99.90;;;;;;5002792;28;20466;-64
2022/10/06 07:06:15;;;;;;;28.60;6.77;;;22.50;99.90;;;;;;5000855;28;20493;-66
2022/10/06 07:08:43;;;;;;;15.63;5.83;;;23.10;99.90;;;;;;5007238;28;20438;-65
2022/10/06 07:11:17;;;;;;;9.60;6.27;;;23.50;99.90;;;;;;5003185;28;20432;-66
2022/10/06 07:13:44;;;;;;;12.00;6.07;;;23.90;99.90;;;;;;5011896;28;20411;-65
2022/10/06 07:27:27;;;;;;;13.50;6.03;;;23.50;99.90;;;;;;5012830;28;20481;-64
2022/10/06 07:29:53;;;;;;;29.10;6.17;;;23.20;99.90;;;;;;5010669;28;20431;-64
2022/10/06 07:32:23;;;;;;;65.80;9.13;;;22.80;99.90;;;;;;4996079;28;20482;-64
2022/10/06 07:34:50;;;;;;;28.60;6.80;;;22.70;99.90;;;;;;5011783;28;20417;-66
2022/10/06 07:37:16;;;;;;;13.33;5.70;;;22.40;99.90;;;;;;5012639;28;20484;-63
2022/10/06 07:39:48;;;;;;;33.27;8.00;;;22.40;99.90;;;;;;5011289;28;20482;-66
2022/10/06 07:42:17;;;;;;;60.47;10.43;;;22.60;99.90;;;;;;5003044;28;20407;-66
2022/10/06 07:45:36;;;;;;;20.00;5.67;;;22.70;99.90;;;;;;5011303;28;20403;-67
2022/10/06 07:47:36;;;;;;;6.43;5.37;;;22.90;99.90;;;;;;5011453;28;20807;-66
2022/10/06 07:50:04;;;;;;;18.60;5.80;;;22.80;99.90;;;;;;5009966;28;20431;-66
2022/10/06 07:52:29;;;;;;;26.40;7.53;;;22.80;99.90;;;;;;4998199;28;20844;-67
2022/10/06 07:54:57;;;;;;;16.20;8.00;;;22.80;99.90;;;;;;5006468;28;20438;-66
2022/10/06 07:57:25;;;;;;;55.80;9.27;;;22.90;99.90;;;;;;4998898;28;20200;-65
2022/10/06 07:59:51;;;;;;;15.53;6.00;;;23.00;99.90;;;;;;5005846;28;20423;-66
2022/10/06 08:02:18;;;;;;;12.87;6.50;;;22.80;99.90;;;;;;5001974;28;20428;-65
2022/10/06 08:04:44;;;;;;;28.10;7.70;;;22.70;99.90;;;;;;5006447;28;20954;-67
2022/10/06 08:07:11;;;;;;;29.60;8.77;;;22.60;99.90;;;;;;5012160;28;20408;-68
2022/10/06 08:09:37;;;;;;;28.13;6.63;;;22.70;99.90;;;;;;5009341;28;20279;-65
2022/10/06 08:12:31;;;;;;;93.70;13.10;;;22.80;99.90;;;;;;5000337;28;20549;-65
2022/10/06 08:14:48;;;;;;;134.20;16.17;;;23.10;99.90;;;;;;5007080;28;20168;-64
2022/10/06 08:17:14;;;;;;;61.57;11.50;;;23.20;99.90;;;;;;5002906;28;20877;-67
2022/10/06 08:19:39;;;;;;;68.07;12.17;;;23.30;99.90;;;;;;5010211;28;20172;-68
2022/10/06 08:22:05;;;;;;;45.20;8.57;;;23.40;99.90;;;;;;5004683;28;20300;-68
2022/10/06 08:24:30;;;;;;;25.60;7.43;;;23.40;99.90;;;;;;5002895;28;20172;-68
2022/10/06 08:26:56;;;;;;;29.60;7.20;;;23.30;99.90;;;;;;5011683;28;20238;-67
2022/10/06 08:29:22;;;;;;;28.70;8.73;;;23.40;99.90;;;;;;5009816;28;20184;-69
2022/10/06 08:31:47;;;;;;;51.23;10.40;;;23.50;99.90;;;;;;5001537;28;20235;-67
2022/10/06 08:34:13;;;;;;;29.27;8.50;;;23.30;99.90;;;;;;5002477;28;20176;-68
2022/10/06 08:36:39;;;;;;;26.30;7.67;;;22.90;99.90;;;;;;5011595;28;20199;-67
2022/10/06 08:39:06;;;;;;;28.57;7.57;;;22.60;99.90;;;;;;5011005;28;20192;-70
2022/10/06 08:41:31;;;;;;;28.20;7.80;;;22.50;99.90;;;;;;5001023;28;20669;-68
2022/10/06 08:44:05;;;;;;;21.00;6.97;;;22.40;99.90;;;;;;5001800;28;20539;-70
2022/10/06 08:46:37;;;;;;;59.57;10.17;;;22.00;99.90;;;;;;5010927;28;20203;-68
2022/10/06 08:49:04;;;;;;;9.10;6.60;;;21.90;99.90;;;;;;5010755;28;20442;-70
2022/10/06 08:51:52;;;;;;;34.23;10.23;;;21.30;99.90;;;;;;5000224;28;20443;-70
2022/10/06 08:54:30;;;;;;;21.23;6.93;;;21.40;99.90;;;;;;5002102;28;20478;-70
2022/10/06 08:57:12;;;;;;;59.40;10.90;;;21.50;99.90;;;;;;5010517;28;20470;-69
2022/10/06 08:59:42;;;;;;;11.50;7.60;;;21.10;99.90;;;;;;5009394;28;20399;-70
2022/10/06 09:02:37;;;;;;;25.73;8.13;;;20.70;99.90;;;;;;4997555;28;20442;-69
2022/10/06 09:05:05;;;;;;;27.07;8.10;;;20.70;99.90;;;;;;5007971;28;20435;-69
2022/10/06 09:08:13;;;;;;;43.03;7.80;;;20.60;99.90;;;;;;5010283;28;20438;-70
2022/10/06 09:10:57;;;;;;;10.00;6.83;;;20.70;99.90;;;;;;4996483;28;20931;-70
2022/10/06 09:13:31;;;;;;;11.47;6.33;;;21.00;99.90;;;;;;4999623;28;21118;-71
2022/10/06 09:16:06;;;;;;;26.17;8.07;;;20.80;99.90;;;;;;5008548;28;20536;-70
2022/10/06 09:18:37;;;;;;;49.77;10.33;;;20.90;99.90;;;;;;5009708;28;20569;-69
2022/10/06 09:21:13;;;;;;;36.93;9.17;;;21.10;99.90;;;;;;4999926;28;21010;-69
2022/10/06 09:23:48;;;;;;;29.37;9.57;;;21.50;99.90;;;;;;5009828;28;20414;-69
2022/10/06 09:26:18;;;;;;;33.97;8.97;;;21.50;99.90;;;;;;5006452;28;21000;-70
2022/10/06 09:28:45;;;;;;;42.30;8.87;;;21.70;99.90;;;;;;5009299;28;20946;-69
2022/10/06 09:31:41;;;;;;;86.80;12.73;;;21.60;99.90;;;;;;4999027;28;20815;-70
2022/10/06 09:34:27;;;;;;;35.03;7.20;;;21.40;99.90;;;;;;5001240;28;20419;-69
2022/10/06 09:37:02;;;;;;;17.93;8.80;;;21.60;99.90;;;;;;5009919;28;20403;-70
2022/10/06 09:39:37;;;;;;;17.23;6.43;;;21.80;99.90;;;;;;5009713;28;20526;-71
2022/10/06 09:42:34;;;;;;;19.00;5.20;;;21.80;99.90;;;;;;5004183;28;20426;-68
2022/10/06 09:45:01;;;;;;;13.47;6.47;;;21.70;99.90;;;;;;4989863;28;20443;-69
2022/10/06 09:47:35;;;;;;;9.00;5.20;;;21.60;99.90;;;;;;5009563;28;20442;-69
2022/10/06 09:50:21;;;;;;;18.60;5.70;;;21.40;99.90;;;;;;5007744;28;20473;-70
2022/10/06 09:53:05;;;;;;;9.90;4.07;;;21.10;99.90;;;;;;4995997;28;20802;-70
2022/10/06 09:55:36;;;;;;;9.63;4.47;;;20.70;99.90;;;;;;5002825;28;20498;-70
2022/10/06 09:58:21;;;;;;;9.97;4.40;;;20.20;99.90;;;;;;5009376;28;20431;-69
2022/10/06 10:00:52;;;;;;;13.67;5.40;;;20.20;99.90;;;;;;5000962;28;20459;-70
2022/10/06 10:03:18;;;;;;;9.20;4.20;;;20.40;99.90;;;;;;5000577;28;20427;-68
2022/10/06 10:05:55;;;;;;;9.20;4.50;;;20.40;99.90;;;;;;5009583;28;20889;-69
2022/10/06 10:08:26;;;;;;;7.23;3.90;;;20.50;99.90;;;;;;5009301;28;20593;-71
2022/10/06 10:11:06;;;;;;;14.83;5.63;;;20.20;99.90;;;;;;5008631;28;20415;-70
2022/10/06 10:13:42;;;;;;;7.37;4.27;;;20.10;99.90;;;;;;5000337;28;20459;-69
2022/10/06 10:16:15;;;;;;;5.17;4.00;;;20.10;99.90;;;;;;5009212;28;20418;-70
2022/10/06 10:18:46;;;;;;;5.60;4.30;;;20.50;99.90;;;;;;5008951;28;20431;-70
2022/10/06 10:21:24;;;;;;;11.83;4.87;;;20.90;99.90;;;;;;5007757;28;20569;-71
2022/10/06 10:23:59;;;;;;;37.67;8.23;;;20.80;99.90;;;;;;4999472;28;20415;-70
2022/10/06 10:26:46;;;;;;;10.43;4.47;;;20.70;99.90;;;;;;5003077;28;20425;-70
2022/10/06 10:29:36;;;;;;;41.43;6.73;;;20.40;99.90;;;;;;5012427;28;20419;-70
2022/10/06 10:32:11;;;;;;;23.87;4.40;;;20.70;99.90;;;;;;5001244;28;20486;-68
2022/10/06 10:34:57;;;;;;;29.13;5.40;;;20.60;99.90;;;;;;5007021;28;20415;-70
2022/10/06 10:37:47;;;;;;;8.43;3.70;;;20.70;99.90;;;;;;5012410;28;20907;-70
2022/10/06 10:40:34;;;;;;;6.03;2.90;;;20.90;99.90;;;;;;5010397;28;20565;-71
2022/10/06 10:43:08;;;;;;;28.90;4.93;;;21.10;99.90;;;;;;5003501;28;20467;-70
2022/10/06 10:45:45;;;;;;;10.67;4.20;;;21.30;99.90;;;;;;5011690;28;20426;-70
2022/10/06 10:48:51;;;;;;;4.80;2.73;;;21.50;99.90;;;;;;5029012;22;20439;-69
2022/10/06 10:51:39;;;;;;;8.63;2.70;;;21.80;99.90;;;;;;5031074;28;20418;-68
2022/10/06 10:54:13;;;;;;;3.03;2.20;;;21.90;99.90;;;;;;5040844;28;20418;-69
2022/10/06 10:56:40;;;;;;;13.47;2.93;;;21.10;99.90;;;;;;5044465;28;20615;-68
2022/10/06 10:59:13;;;;;;;38.43;5.90;;;21.20;99.90;;;;;;5032975;28;20428;-69
2022/10/06 11:01:45;;;;;;;33.27;6.33;;;21.70;99.90;;;;;;5027595;28;20477;-69
2022/10/06 11:04:12;;;;;;;20.60;4.63;;;21.60;99.90;;;;;;5030612;28;20438;-68
2022/10/06 11:07:09;;;;;;;12.00;5.10;;;21.60;99.90;;;;;;5031676;28;20409;-69
2022/10/06 11:09:57;;;;;;;13.97;4.23;;;21.60;99.90;;;;;;5031180;28;20807;-67
2022/10/06 11:12:26;;;;;;;6.83;3.47;;;21.50;99.90;;;;;;5025355;28;20462;-68
2022/10/06 11:15:00;;;;;;;7.80;4.10;;;21.50;99.90;;;;;;5025255;28;20456;-67
2022/10/06 11:17:39;;;;;;;4.83;3.50;;;21.50;99.90;;;;;;5017317;28;20517;-68
2022/10/06 11:20:10;;;;;;;8.10;3.60;;;21.50;99.90;;;;;;5031279;28;20434;-68
2022/10/06 11:22:41;;;;;;;10.30;3.60;;;21.30;99.90;;;;;;5005406;28;20437;-68
2022/10/06 11:25:25;;;;;;;6.67;3.50;;;20.90;99.90;;;;;;5030416;28;20416;-69
2022/10/06 11:28:16;;;;;;;9.50;3.80;;;20.50;99.90;;;;;;5031006;28;20418;-68
2022/10/06 11:31:09;;;;;;;7.43;3.10;;;20.70;99.90;;;;;;5015306;28;20445;-68
2022/10/06 11:33:58;;;;;;;19.17;5.20;;;21.00;99.90;;;;;;5023144;28;20524;-68
2022/10/06 11:36:33;;;;;;;38.27;6.40;;;21.20;99.90;;;;;;4990832;28;20542;-68
2022/10/06 11:39:22;;;;;;;21.53;4.47;;;21.30;99.90;;;;;;4990593;28;20477;-69
2022/10/06 11:42:14;;;;;;;13.43;3.90;;;21.40;99.90;;;;;;5005447;28;20953;-67
2022/10/06 11:44:45;;;;;;;4.40;3.27;;;21.40;99.90;;;;;;5012406;28;20453;-68
2022/10/06 11:47:19;;;;;;;5.20;3.20;;;21.30;99.90;;;;;;5020678;28;20431;-69
2022/10/06 11:49:57;;;;;;;10.63;3.50;;;21.00;99.90;;;;;;5030253;28;20442;-69
2022/10/06 11:52:23;;;;;;;3.83;2.60;;;20.90;99.90;;;;;;5027185;28;20481;-68
2022/10/06 11:55:27;;;;;;;7.20;2.77;;;20.40;99.90;;;;;;5029642;28;20406;-69
2022/10/06 11:58:12;;;;;;;25.63;4.50;;;20.20;99.90;;;;;;5010426;28;20270;-68
2022/10/06 12:00:39;;;;;;;13.50;3.23;;;20.20;99.90;;;;;;5018851;28;20893;-67
2022/10/06 12:03:30;;;;;;;9.60;3.67;;;20.60;99.90;;;;;;5028825;28;20436;-67
2022/10/06 12:05:56;;;;;;;19.03;4.40;;;20.90;99.90;;;;;;5031257;28;20403;-67
2022/10/06 12:08:40;;;;;;;27.33;5.00;;;21.10;99.90;;;;;;5013014;28;20438;-68
2022/10/06 12:11:38;;;;;;;27.40;5.17;;;21.20;99.90;;;;;;5020468;28;20487;-66
2022/10/06 12:14:24;;;;;;;32.13;6.40;;;21.30;99.90;;;;;;5019902;28;20799;-67
2022/10/06 12:16:56;;;;;;;13.93;3.70;;;21.40;99.90;;;;;;5030290;28;20520;-67
2022/10/06 12:19:30;;;;;;;18.90;4.67;;;21.40;99.90;;;;;;5030108;28;20480;-67
2022/10/06 12:22:08;;;;;;;4.00;2.80;;;21.40;99.90;;;;;;5023485;28;20512;-67
2022/10/06 12:25:17;;;;;;;19.13;3.57;;;21.00;99.90;;;;;;5022803;28;20446;-67
2022/10/06 12:27:46;;;;;;;6.00;3.20;;;21.20;99.90;;;;;;4991067;28;20774;-67
2022/10/06 12:30:21;;;;;;;4.43;2.90;;;21.20;99.90;;;;;;4990786;28;20424;-66
2022/10/06 12:32:57;;;;;;;5.47;3.00;;;21.20;99.90;;;;;;5020700;28;20459;-67
2022/10/06 12:35:40;;;;;;;9.70;3.17;;;21.40;99.90;;;;;;5014100;28;20441;-68
2022/10/06 12:38:42;;;;;;;14.57;4.63;;;21.50;99.90;;;;;;5030791;28;20402;-68
2022/10/06 12:41:34;;;;;;;31.00;7.37;;;21.40;99.90;;;;;;5020769;28;20842;-67
2022/10/06 12:44:02;;;;;;;10.70;3.40;;;21.30;99.90;;;;;;5019597;28;20881;-66
2022/10/06 12:46:37;;;;;;;55.40;8.70;;;21.40;99.90;;;;;;5030214;28;20414;-67
2022/10/06 12:49:13;;;;;;;6.47;3.30;;;21.20;99.90;;;;;;5030623;28;20449;-68
2022/10/06 12:51:44;;;;;;;35.47;8.03;;;21.10;99.90;;;;;;5020338;28;20436;-68
2022/10/06 12:54:45;;;;;;;45.20;8.90;;;21.20;99.90;;;;;;5023871;28;20449;-68
2022/10/06 12:57:17;;;;;;;44.37;8.07;;;21.00;99.90;;;;;;4945190;28;20427;-68
2022/10/06 12:59:42;;;;;;;11.03;4.70;;;21.00;99.90;;;;;;5029760;28;20953;-68
2022/10/06 13:02:42;;;;;;;13.30;4.40;;;21.20;99.90;;;;;;5022812;28;20537;-67
2022/10/06 13:05:11;;;;;;;10.77;4.00;;;21.40;99.90;;;;;;5008912;28;20198;-69
2022/10/06 13:07:58;;;;;;;9.67;3.60;;;21.50;99.90;;;;;;5012563;28;20431;-68
2022/10/06 13:10:24;;;;;;;10.53;3.20;;;21.50;99.90;;;;;;5018682;28;20455;-70
2022/10/06 13:12:51;;;;;;;6.53;2.80;;;21.40;99.90;;;;;;5025935;28;20457;-69
2022/10/06 13:15:23;;;;;;;5.97;3.00;;;21.30;99.90;;;;;;5029635;28;20525;-68
2022/10/06 13:17:55;;;;;;;11.20;3.20;;;21.20;99.90;;;;;;5021408;28;20431;-67